ETSB

Buchel Airport

Germany
METAR ETSB 231420Z 05013KT 9999 FEW030 SCT110 20/12 Q1018 BLU+BLU TEMPO BLU+
Observed Flight Rules
May-23 @ 14:20 UTC (47 minutes ago) Visual Flight Rules
Wind Visibility Clouds
50° at 13 knots 10,000+ meters
  • Few at 3,000' AGL
  • Scattered at 11,000' AGL
Temperatures Readings
Current 20°C / 68°F
Dewpoint 12°C / 54°F
Humidity 60%
Altimeter 30.06" Hg
Pressure 1018 hPa
Elevation 486
METAR ETSB 231420Z 05013KT 9999 FEW030 SCT110 20/12 Q1018 BLU+BLU TEMPO BLU+
Observed Flight Rules
May-23 @ 14:20 UTC
(47 minutes ago)
VFR
Wind Visibility
50° at 13 knots 10,000+ meters
Clouds
  • Few at 3,000' AGL
  • Scattered at 11,000' AGL
Temperature Dewpoint
20°C / 68°F 12°C / 54°F
Humidity Altimeter Pressure
60% 30.06" Hg 1018 hPa